Main page

Çorlu, Turkey

Tekirdağ Çorlu Airport

latitude: 41-08N, longitude: 027-55E, elevation: 173 m

Current weather observation

The report was made 42 minutes ago, at 20:20 UTC
Wind 8 kt from the North
Temperature 16°C
Humidity 94%
Pressure 1013 hPa
Visibility 10 km or more
Scattered clouds at a height of 3000 ft

METAR: LTBU 072020Z 36008KT 9999 SCT030 16/15 Q1013

Time: 00:02 (21:02 UTC)


The report was made 4 hours and 22 minutes ago, at 16:40 UTC
Forecast valid from 07 at 18 UTC to 08 at 18 UTC
Wind 12 kt from the North/Northeast
Visibility 10 km or more
Scattered clouds at a height of 3500 ft
Broken clouds at a height of 10000 ft
from 07 at 23 UTC to 08 at 03 UTC
Broken clouds at a height of 2500 ft
Broken clouds at a height of 8000 ft
light rain showers
from 08 at 08 UTC to 08 at 11 UTC
Wind 15 kt from the Northeast with gusts up to 25 kt

TAF: LTBU 071640Z 0718/0818 03012KT 9999 SCT035 BKN100 TEMPO 0723/0803 -SHRA BKN025 BKN080 BECMG 0808/0811 04015G25KT


Weather observations and forecasts of more than 4000 airports (METAR and TAF reports).

The available stations are represented by yellow and red dots on the map.

Hover mouse over dot to see the name of the station.

Then click to see weather observations and forecasts.

To change the map : click on the green buttons with a black cross to zoom in, on the green button with a dash to zoom out, or on the green arrows for adjacent maps.